Terminal Aerodrome Forecast
Issued by NWS

Home | Current Version | Previous Version | Text Only | Print | Product List | Glossary On
Versions: 1 2 3 4 5 6 7 8 9 10 11 12 13 14 15
000
FTAK31 PAJN 211100 RRA
TAFAWG
TAF
PAWG 211143Z 2112/2212 00000KT P6SM SKC
     FM211400 00000KT P6SM VCFG SKC
     FM211800 32005KT P6SM SKC
     FM212300 32009KT P6SM SKC
     FM220400 VRB03KT P6SM SKC
      AMD LTD TO CLD VIS AND WIND 2112/2115=

USA.gov is the U.S. government's official web portal to all federal, state and local government web resources and services.